sensor_id;sensor_type;location;lat;lon;timestamp;P1;durP1;ratioP1;P2;durP2;ratioP2
9254;SDS011;4663;49.120;9.730;2023-02-12T00:02:24;37.50;;;34.30;;
9254;SDS011;4663;49.120;9.730;2023-02-12T00:04:49;35.90;;;32.77;;
9254;SDS011;4663;49.120;9.730;2023-02-12T00:07:15;33.73;;;30.77;;
9254;SDS011;4663;49.120;9.730;2023-02-12T00:09:40;32.60;;;29.80;;
9254;SDS011;4663;49.120;9.730;2023-02-12T00:12:06;34.17;;;30.90;;
9254;SDS011;4663;49.120;9.730;2023-02-12T00:14:31;31.27;;;28.57;;
9254;SDS011;4663;49.120;9.730;2023-02-12T00:16:58;31.93;;;29.13;;
9254;SDS011;4663;49.120;9.730;2023-02-12T00:19:23;30.83;;;28.23;;
9254;SDS011;4663;49.120;9.730;2023-02-12T00:21:49;32.53;;;29.60;;
9254;SDS011;4663;49.120;9.730;2023-02-12T00:24:14;32.63;;;29.80;;
9254;SDS011;4663;49.120;9.730;2023-02-12T00:26:40;34.73;;;31.83;;
9254;SDS011;4663;49.120;9.730;2023-02-12T00:29:05;33.53;;;30.47;;
9254;SDS011;4663;49.120;9.730;2023-02-12T00:31:31;34.53;;;31.40;;
9254;SDS011;4663;49.120;9.730;2023-02-12T00:33:57;33.83;;;30.87;;
9254;SDS011;4663;49.120;9.730;2023-02-12T00:36:24;33.33;;;30.27;;
9254;SDS011;4663;49.120;9.730;2023-02-12T00:38:51;34.47;;;31.40;;
9254;SDS011;4663;49.120;9.730;2023-02-12T00:41:18;32.73;;;29.93;;
9254;SDS011;4663;49.120;9.730;2023-02-12T00:43:43;32.47;;;29.47;;
9254;SDS011;4663;49.120;9.730;2023-02-12T00:46:08;30.17;;;27.50;;
9254;SDS011;4663;49.120;9.730;2023-02-12T00:48:34;30.13;;;27.17;;
9254;SDS011;4663;49.120;9.730;2023-02-12T00:51:00;30.23;;;27.40;;
9254;SDS011;4663;49.120;9.730;2023-02-12T00:53:26;34.73;;;31.43;;
9254;SDS011;4663;49.120;9.730;2023-02-12T00:55:51;31.00;;;28.20;;
9254;SDS011;4663;49.120;9.730;2023-02-12T00:58:16;31.67;;;28.67;;
9254;SDS011;4663;49.120;9.730;2023-02-12T01:00:42;32.03;;;29.03;;
9254;SDS011;4663;49.120;9.730;2023-02-12T01:03:08;28.63;;;26.07;;
9254;SDS011;4663;49.120;9.730;2023-02-12T01:05:34;32.33;;;29.30;;
9254;SDS011;4663;49.120;9.730;2023-02-12T01:07:59;30.87;;;28.17;;
9254;SDS011;4663;49.120;9.730;2023-02-12T01:10:25;30.40;;;27.67;;
9254;SDS011;4663;49.120;9.730;2023-02-12T01:12:51;30.30;;;27.70;;
9254;SDS011;4663;49.120;9.730;2023-02-12T01:15:17;30.57;;;27.57;;
9254;SDS011;4663;49.120;9.730;2023-02-12T01:17:43;29.57;;;26.87;;
9254;SDS011;4663;49.120;9.730;2023-02-12T01:20:09;28.90;;;26.10;;
9254;SDS011;4663;49.120;9.730;2023-02-12T01:22:37;29.93;;;27.07;;
9254;SDS011;4663;49.120;9.730;2023-02-12T01:25:05;28.00;;;25.33;;
9254;SDS011;4663;49.120;9.730;2023-02-12T01:27:32;30.03;;;27.33;;
9254;SDS011;4663;49.120;9.730;2023-02-12T01:29:57;29.70;;;26.90;;
9254;SDS011;4663;49.120;9.730;2023-02-12T01:32:22;28.77;;;26.13;;
9254;SDS011;4663;49.120;9.730;2023-02-12T01:34:48;30.53;;;27.87;;
9254;SDS011;4663;49.120;9.730;2023-02-12T01:37:13;28.80;;;26.20;;
9254;SDS011;4663;49.120;9.730;2023-02-12T01:39:39;30.43;;;27.53;;
9254;SDS011;4663;49.120;9.730;2023-02-12T01:42:04;31.03;;;28.23;;
9254;SDS011;4663;49.120;9.730;2023-02-12T01:44:31;31.70;;;28.63;;
9254;SDS011;4663;49.120;9.730;2023-02-12T01:47:02;28.43;;;25.67;;
9254;SDS011;4663;49.120;9.730;2023-02-12T01:49:34;31.60;;;28.63;;
9254;SDS011;4663;49.120;9.730;2023-02-12T01:52:05;30.47;;;27.67;;
9254;SDS011;4663;49.120;9.730;2023-02-12T01:54:34;28.90;;;26.20;;
9254;SDS011;4663;49.120;9.730;2023-02-12T01:57:01;31.30;;;28.30;;
9254;SDS011;4663;49.120;9.730;2023-02-12T01:59:28;30.57;;;27.87;;
9254;SDS011;4663;49.120;9.730;2023-02-12T02:01:55;29.80;;;26.90;;
9254;SDS011;4663;49.120;9.730;2023-02-12T02:04:22;30.03;;;27.27;;
9254;SDS011;4663;49.120;9.730;2023-02-12T02:06:57;29.90;;;27.00;;
9254;SDS011;4663;49.120;9.730;2023-02-12T02:09:25;29.97;;;27.27;;
9254;SDS011;4663;49.120;9.730;2023-02-12T02:11:52;31.10;;;28.30;;
9254;SDS011;4663;49.120;9.730;2023-02-12T02:14:36;29.93;;;27.23;;
9254;SDS011;4663;49.120;9.730;2023-02-12T02:25:20;30.77;;;27.77;;
9254;SDS011;4663;49.120;9.730;2023-02-12T02:30:59;31.87;;;29.07;;
9254;SDS011;4663;49.120;9.730;2023-02-12T02:38:43;30.23;;;27.50;;
9254;SDS011;4663;49.120;9.730;2023-02-12T02:41:17;31.43;;;28.50;;
9254;SDS011;4663;49.120;9.730;2023-02-12T02:43:50;31.67;;;28.87;;
9254;SDS011;4663;49.120;9.730;2023-02-12T02:46:36;30.43;;;27.63;;
9254;SDS011;4663;49.120;9.730;2023-02-12T02:49:14;33.00;;;30.00;;
9254;SDS011;4663;49.120;9.730;2023-02-12T02:51:44;34.30;;;31.20;;
9254;SDS011;4663;49.120;9.730;2023-02-12T02:54:18;30.67;;;27.87;;
9254;SDS011;4663;49.120;9.730;2023-02-12T02:56:50;32.60;;;29.80;;
9254;SDS011;4663;49.120;9.730;2023-02-12T02:59:23;31.83;;;28.90;;
9254;SDS011;4663;49.120;9.730;2023-02-12T03:02:00;31.27;;;28.57;;
9254;SDS011;4663;49.120;9.730;2023-02-12T03:04:51;33.43;;;30.40;;
9254;SDS011;4663;49.120;9.730;2023-02-12T03:07:26;33.40;;;30.57;;
9254;SDS011;4663;49.120;9.730;2023-02-12T03:12:36;34.57;;;31.60;;
9254;SDS011;4663;49.120;9.730;2023-02-12T03:15:07;34.80;;;31.70;;
9254;SDS011;4663;49.120;9.730;2023-02-12T03:17:38;34.03;;;31.30;;
9254;SDS011;4663;49.120;9.730;2023-02-12T03:20:11;34.60;;;31.60;;
9254;SDS011;4663;49.120;9.730;2023-02-12T03:22:43;35.00;;;32.10;;
9254;SDS011;4663;49.120;9.730;2023-02-12T03:25:16;36.33;;;33.27;;
9254;SDS011;4663;49.120;9.730;2023-02-12T03:27:51;39.27;;;36.13;;
9254;SDS011;4663;49.120;9.730;2023-02-12T03:31:00;39.37;;;36.17;;
9254;SDS011;4663;49.120;9.730;2023-02-12T03:33:36;40.17;;;36.83;;
9254;SDS011;4663;49.120;9.730;2023-02-12T03:39:39;41.37;;;38.17;;
9254;SDS011;4663;49.120;9.730;2023-02-12T03:42:15;40.27;;;37.07;;
9254;SDS011;4663;49.120;9.730;2023-02-12T03:45:00;41.27;;;38.10;;
9254;SDS011;4663;49.120;9.730;2023-02-12T03:47:50;40.73;;;37.60;;
9254;SDS011;4663;49.120;9.730;2023-02-12T03:50:44;39.13;;;35.97;;
9254;SDS011;4663;49.120;9.730;2023-02-12T03:53:16;39.03;;;35.87;;
9254;SDS011;4663;49.120;9.730;2023-02-12T03:55:41;43.60;;;40.07;;
9254;SDS011;4663;49.120;9.730;2023-02-12T03:58:12;43.50;;;40.13;;
9254;SDS011;4663;49.120;9.730;2023-02-12T04:00:43;42.13;;;38.57;;
9254;SDS011;4663;49.120;9.730;2023-02-12T04:03:09;42.00;;;38.60;;
9254;SDS011;4663;49.120;9.730;2023-02-12T04:05:34;41.17;;;37.83;;
9254;SDS011;4663;49.120;9.730;2023-02-12T04:08:00;43.70;;;40.17;;
9254;SDS011;4663;49.120;9.730;2023-02-12T04:10:35;42.60;;;38.90;;
9254;SDS011;4663;49.120;9.730;2023-02-12T04:13:22;46.80;;;42.50;;
9254;SDS011;4663;49.120;9.730;2023-02-12T04:18:51;46.93;;;43.27;;
9254;SDS011;4663;49.120;9.730;2023-02-12T04:27:22;43.53;;;40.13;;
9254;SDS011;4663;49.120;9.730;2023-02-12T04:30:02;46.27;;;42.70;;
9254;SDS011;4663;49.120;9.730;2023-02-12T04:32:32;48.07;;;44.23;;
9254;SDS011;4663;49.120;9.730;2023-02-12T04:35:04;48.63;;;44.73;;
9254;SDS011;4663;49.120;9.730;2023-02-12T04:37:48;50.47;;;46.60;;
9254;SDS011;4663;49.120;9.730;2023-02-12T04:40:18;49.00;;;45.20;;
9254;SDS011;4663;49.120;9.730;2023-02-12T04:42:50;48.93;;;44.93;;
9254;SDS011;4663;49.120;9.730;2023-02-12T04:45:21;47.83;;;44.13;;
9254;SDS011;4663;49.120;9.730;2023-02-12T04:47:50;48.27;;;44.57;;
9254;SDS011;4663;49.120;9.730;2023-02-12T04:50:16;46.33;;;42.57;;
9254;SDS011;4663;49.120;9.730;2023-02-12T04:52:41;45.93;;;42.43;;
9254;SDS011;4663;49.120;9.730;2023-02-12T04:55:07;45.07;;;41.53;;
9254;SDS011;4663;49.120;9.730;2023-02-12T04:57:32;46.97;;;43.37;;
9254;SDS011;4663;49.120;9.730;2023-02-12T04:59:58;44.73;;;41.20;;
9254;SDS011;4663;49.120;9.730;2023-02-12T05:02:23;44.13;;;40.50;;
9254;SDS011;4663;49.120;9.730;2023-02-12T05:04:49;45.90;;;42.17;;
9254;SDS011;4663;49.120;9.730;2023-02-12T05:07:15;44.03;;;40.73;;
9254;SDS011;4663;49.120;9.730;2023-02-12T05:09:40;45.53;;;42.00;;
9254;SDS011;4663;49.120;9.730;2023-02-12T05:12:06;46.60;;;42.90;;
9254;SDS011;4663;49.120;9.730;2023-02-12T05:14:32;46.37;;;42.87;;
9254;SDS011;4663;49.120;9.730;2023-02-12T05:16:57;45.50;;;42.00;;
9254;SDS011;4663;49.120;9.730;2023-02-12T05:19:22;45.93;;;42.17;;
9254;SDS011;4663;49.120;9.730;2023-02-12T05:21:50;43.80;;;40.37;;
9254;SDS011;4663;49.120;9.730;2023-02-12T05:24:16;45.43;;;41.90;;
9254;SDS011;4663;49.120;9.730;2023-02-12T05:26:42;44.43;;;40.93;;
9254;SDS011;4663;49.120;9.730;2023-02-12T05:29:07;44.60;;;41.13;;
9254;SDS011;4663;49.120;9.730;2023-02-12T05:31:32;42.90;;;39.77;;
9254;SDS011;4663;49.120;9.730;2023-02-12T05:33:58;46.07;;;42.57;;
9254;SDS011;4663;49.120;9.730;2023-02-12T05:36:23;44.70;;;41.27;;
9254;SDS011;4663;49.120;9.730;2023-02-12T05:38:49;43.23;;;39.80;;
9254;SDS011;4663;49.120;9.730;2023-02-12T05:41:17;44.23;;;40.77;;
9254;SDS011;4663;49.120;9.730;2023-02-12T05:43:44;46.00;;;42.50;;
9254;SDS011;4663;49.120;9.730;2023-02-12T05:46:10;45.13;;;41.47;;
9254;SDS011;4663;49.120;9.730;2023-02-12T05:48:36;46.43;;;42.60;;
9254;SDS011;4663;49.120;9.730;2023-02-12T05:51:07;45.90;;;42.20;;
9254;SDS011;4663;49.120;9.730;2023-02-12T05:53:32;46.67;;;43.07;;
9254;SDS011;4663;49.120;9.730;2023-02-12T05:58:41;47.60;;;43.83;;
9254;SDS011;4663;49.120;9.730;2023-02-12T06:01:12;45.80;;;41.97;;
9254;SDS011;4663;49.120;9.730;2023-02-12T06:03:42;49.77;;;46.00;;
9254;SDS011;4663;49.120;9.730;2023-02-12T06:06:08;49.53;;;45.67;;
9254;SDS011;4663;49.120;9.730;2023-02-12T06:08:34;48.47;;;44.53;;
9254;SDS011;4663;49.120;9.730;2023-02-12T06:11:01;46.20;;;42.50;;
9254;SDS011;4663;49.120;9.730;2023-02-12T06:13:28;48.03;;;44.07;;
9254;SDS011;4663;49.120;9.730;2023-02-12T06:15:54;48.43;;;44.57;;
9254;SDS011;4663;49.120;9.730;2023-02-12T06:18:20;49.13;;;45.40;;
9254;SDS011;4663;49.120;9.730;2023-02-12T06:20:45;45.30;;;41.73;;
9254;SDS011;4663;49.120;9.730;2023-02-12T06:23:12;45.40;;;41.80;;
9254;SDS011;4663;49.120;9.730;2023-02-12T06:25:37;45.83;;;42.20;;
9254;SDS011;4663;49.120;9.730;2023-02-12T06:28:03;47.40;;;43.90;;
9254;SDS011;4663;49.120;9.730;2023-02-12T06:30:28;45.20;;;41.87;;
9254;SDS011;4663;49.120;9.730;2023-02-12T06:32:55;45.97;;;42.27;;
9254;SDS011;4663;49.120;9.730;2023-02-12T06:35:21;45.47;;;41.70;;
9254;SDS011;4663;49.120;9.730;2023-02-12T06:37:47;43.63;;;40.20;;
9254;SDS011;4663;49.120;9.730;2023-02-12T06:40:12;44.23;;;40.53;;
9254;SDS011;4663;49.120;9.730;2023-02-12T06:42:38;45.40;;;41.83;;
9254;SDS011;4663;49.120;9.730;2023-02-12T06:45:03;43.47;;;39.97;;
9254;SDS011;4663;49.120;9.730;2023-02-12T06:47:29;43.67;;;40.20;;
9254;SDS011;4663;49.120;9.730;2023-02-12T06:49:54;43.33;;;39.87;;
9254;SDS011;4663;49.120;9.730;2023-02-12T06:52:19;44.27;;;40.70;;
9254;SDS011;4663;49.120;9.730;2023-02-12T06:54:45;42.70;;;39.17;;
9254;SDS011;4663;49.120;9.730;2023-02-12T06:57:11;42.40;;;38.87;;
9254;SDS011;4663;49.120;9.730;2023-02-12T06:59:36;44.73;;;41.23;;
9254;SDS011;4663;49.120;9.730;2023-02-12T07:02:01;40.50;;;37.37;;
9254;SDS011;4663;49.120;9.730;2023-02-12T07:04:27;41.23;;;37.87;;
9254;SDS011;4663;49.120;9.730;2023-02-12T07:06:52;40.10;;;36.63;;
9254;SDS011;4663;49.120;9.730;2023-02-12T07:09:17;38.67;;;35.53;;
9254;SDS011;4663;49.120;9.730;2023-02-12T07:11:43;53.67;;;49.83;;
9254;SDS011;4663;49.120;9.730;2023-02-12T07:14:12;41.70;;;38.30;;
9254;SDS011;4663;49.120;9.730;2023-02-12T07:16:39;39.70;;;36.27;;
9254;SDS011;4663;49.120;9.730;2023-02-12T07:19:04;37.67;;;34.47;;
9254;SDS011;4663;49.120;9.730;2023-02-12T07:21:30;38.07;;;34.77;;
9254;SDS011;4663;49.120;9.730;2023-02-12T07:23:56;38.00;;;34.67;;
9254;SDS011;4663;49.120;9.730;2023-02-12T07:26:21;37.50;;;34.30;;
9254;SDS011;4663;49.120;9.730;2023-02-12T07:28:47;39.40;;;35.93;;
9254;SDS011;4663;49.120;9.730;2023-02-12T07:31:18;42.47;;;38.77;;
9254;SDS011;4663;49.120;9.730;2023-02-12T07:33:45;43.50;;;39.83;;
9254;SDS011;4663;49.120;9.730;2023-02-12T07:36:14;41.63;;;37.83;;
9254;SDS011;4663;49.120;9.730;2023-02-12T07:38:41;43.67;;;39.77;;
9254;SDS011;4663;49.120;9.730;2023-02-12T07:41:14;40.67;;;37.13;;
9254;SDS011;4663;49.120;9.730;2023-02-12T07:43:42;41.63;;;38.07;;
9254;SDS011;4663;49.120;9.730;2023-02-12T07:46:19;41.40;;;37.53;;
9254;SDS011;4663;49.120;9.730;2023-02-12T07:48:47;41.50;;;37.60;;
9254;SDS011;4663;49.120;9.730;2023-02-12T07:51:16;38.53;;;35.23;;
9254;SDS011;4663;49.120;9.730;2023-02-12T07:53:45;37.00;;;33.63;;
9254;SDS011;4663;49.120;9.730;2023-02-12T07:56:13;38.23;;;35.03;;
9254;SDS011;4663;49.120;9.730;2023-02-12T07:58:40;37.10;;;33.50;;
9254;SDS011;4663;49.120;9.730;2023-02-12T08:03:38;35.77;;;32.47;;
9254;SDS011;4663;49.120;9.730;2023-02-12T08:06:10;33.23;;;30.30;;
9254;SDS011;4663;49.120;9.730;2023-02-12T08:08:37;35.07;;;31.53;;
9254;SDS011;4663;49.120;9.730;2023-02-12T08:11:04;35.03;;;31.57;;
9254;SDS011;4663;49.120;9.730;2023-02-12T08:13:31;34.53;;;31.17;;
9254;SDS011;4663;49.120;9.730;2023-02-12T08:16:04;34.20;;;30.80;;
9254;SDS011;4663;49.120;9.730;2023-02-12T08:18:34;33.30;;;30.00;;
9254;SDS011;4663;49.120;9.730;2023-02-12T08:21:04;35.13;;;31.60;;
9254;SDS011;4663;49.120;9.730;2023-02-12T08:23:31;35.80;;;32.60;;
9254;SDS011;4663;49.120;9.730;2023-02-12T08:26:32;39.00;;;35.33;;
9254;SDS011;4663;49.120;9.730;2023-02-12T08:28:58;37.73;;;34.47;;
9254;SDS011;4663;49.120;9.730;2023-02-12T08:31:35;38.97;;;35.57;;
9254;SDS011;4663;49.120;9.730;2023-02-12T08:34:02;43.70;;;39.73;;
9254;SDS011;4663;49.120;9.730;2023-02-12T08:36:36;46.30;;;42.30;;
9254;SDS011;4663;49.120;9.730;2023-02-12T08:39:03;45.33;;;41.43;;
9254;SDS011;4663;49.120;9.730;2023-02-12T08:41:29;48.37;;;44.30;;
9254;SDS011;4663;49.120;9.730;2023-02-12T08:43:56;53.50;;;48.83;;
9254;SDS011;4663;49.120;9.730;2023-02-12T08:46:26;54.50;;;50.00;;
9254;SDS011;4663;49.120;9.730;2023-02-12T08:48:55;56.60;;;51.87;;
9254;SDS011;4663;49.120;9.730;2023-02-12T08:51:26;59.43;;;54.73;;
9254;SDS011;4663;49.120;9.730;2023-02-12T08:53:56;57.80;;;52.80;;
9254;SDS011;4663;49.120;9.730;2023-02-12T08:56:27;59.97;;;55.13;;
9254;SDS011;4663;49.120;9.730;2023-02-12T08:58:54;56.90;;;52.20;;
9254;SDS011;4663;49.120;9.730;2023-02-12T09:01:25;59.53;;;54.43;;
9254;SDS011;4663;49.120;9.730;2023-02-12T09:03:52;51.03;;;46.00;;
9254;SDS011;4663;49.120;9.730;2023-02-12T09:06:19;51.03;;;46.33;;
9254;SDS011;4663;49.120;9.730;2023-02-12T09:08:46;54.50;;;49.40;;
9254;SDS011;4663;49.120;9.730;2023-02-12T09:11:13;63.23;;;57.43;;
9254;SDS011;4663;49.120;9.730;2023-02-12T09:13:41;64.10;;;58.47;;
9254;SDS011;4663;49.120;9.730;2023-02-12T09:16:06;61.57;;;56.30;;
9254;SDS011;4663;49.120;9.730;2023-02-12T09:18:32;60.43;;;55.33;;
9254;SDS011;4663;49.120;9.730;2023-02-12T09:21:05;64.17;;;58.57;;
9254;SDS011;4663;49.120;9.730;2023-02-12T09:23:33;68.23;;;62.43;;
9254;SDS011;4663;49.120;9.730;2023-02-12T09:25:59;70.77;;;65.23;;
9254;SDS011;4663;49.120;9.730;2023-02-12T09:28:24;71.10;;;64.73;;
9254;SDS011;4663;49.120;9.730;2023-02-12T09:30:50;70.70;;;64.93;;
9254;SDS011;4663;49.120;9.730;2023-02-12T09:33:15;67.23;;;61.83;;
9254;SDS011;4663;49.120;9.730;2023-02-12T09:35:41;74.23;;;67.77;;
9254;SDS011;4663;49.120;9.730;2023-02-12T09:38:06;70.57;;;64.83;;
9254;SDS011;4663;49.120;9.730;2023-02-12T09:43:43;67.40;;;61.90;;
9254;SDS011;4663;49.120;9.730;2023-02-12T09:51:22;62.90;;;57.33;;
9254;SDS011;4663;49.120;9.730;2023-02-12T09:53:49;56.03;;;50.97;;
9254;SDS011;4663;49.120;9.730;2023-02-12T09:56:32;51.67;;;46.37;;
9254;SDS011;4663;49.120;9.730;2023-02-12T09:59:00;47.77;;;42.97;;
9254;SDS011;4663;49.120;9.730;2023-02-12T10:01:28;41.10;;;36.67;;
9254;SDS011;4663;49.120;9.730;2023-02-12T10:03:54;45.27;;;37.00;;
9254;SDS011;4663;49.120;9.730;2023-02-12T10:06:21;41.43;;;37.03;;
9254;SDS011;4663;49.120;9.730;2023-02-12T10:11:36;39.23;;;35.03;;
9254;SDS011;4663;49.120;9.730;2023-02-12T10:27:49;38.60;;;34.57;;
9254;SDS011;4663;49.120;9.730;2023-02-12T10:33:03;38.00;;;33.87;;
9254;SDS011;4663;49.120;9.730;2023-02-12T10:35:35;39.90;;;35.90;;
9254;SDS011;4663;49.120;9.730;2023-02-12T10:38:21;38.10;;;34.30;;
9254;SDS011;4663;49.120;9.730;2023-02-12T10:40:53;40.60;;;36.43;;
9254;SDS011;4663;49.120;9.730;2023-02-12T10:43:21;41.67;;;37.43;;
9254;SDS011;4663;49.120;9.730;2023-02-12T10:45:48;41.87;;;37.93;;
9254;SDS011;4663;49.120;9.730;2023-02-12T10:51:03;44.90;;;40.67;;
9254;SDS011;4663;49.120;9.730;2023-02-12T10:53:43;52.03;;;47.40;;
9254;SDS011;4663;49.120;9.730;2023-02-12T10:56:17;60.03;;;55.17;;
9254;SDS011;4663;49.120;9.730;2023-02-12T10:58:55;69.27;;;64.07;;
9254;SDS011;4663;49.120;9.730;2023-02-12T11:01:30;71.87;;;66.70;;
9254;SDS011;4663;49.120;9.730;2023-02-12T11:09:38;67.17;;;62.20;;
9254;SDS011;4663;49.120;9.730;2023-02-12T11:14:54;69.37;;;64.60;;
9254;SDS011;4663;49.120;9.730;2023-02-12T11:22:50;50.80;;;47.07;;
9254;SDS011;4663;49.120;9.730;2023-02-12T11:25:21;49.40;;;45.77;;
9254;SDS011;4663;49.120;9.730;2023-02-12T11:30:59;46.27;;;42.93;;
9254;SDS011;4663;49.120;9.730;2023-02-12T11:33:41;39.90;;;36.97;;
9254;SDS011;4663;49.120;9.730;2023-02-12T11:38:51;40.07;;;37.27;;
9254;SDS011;4663;49.120;9.730;2023-02-12T11:43:50;28.87;;;26.67;;
9254;SDS011;4663;49.120;9.730;2023-02-12T11:46:18;23.93;;;22.03;;
9254;SDS011;4663;49.120;9.730;2023-02-12T11:48:45;22.03;;;20.20;;
9254;SDS011;4663;49.120;9.730;2023-02-12T11:51:17;19.57;;;18.17;;
9254;SDS011;4663;49.120;9.730;2023-02-12T11:53:49;19.40;;;17.90;;
9254;SDS011;4663;49.120;9.730;2023-02-12T11:56:17;20.60;;;19.07;;
9254;SDS011;4663;49.120;9.730;2023-02-12T11:58:44;22.97;;;21.40;;
9254;SDS011;4663;49.120;9.730;2023-02-12T12:01:21;24.13;;;22.50;;
9254;SDS011;4663;49.120;9.730;2023-02-12T12:06:29;33.73;;;31.50;;
9254;SDS011;4663;49.120;9.730;2023-02-12T12:09:01;36.08;;;33.67;;
9254;SDS011;4663;49.120;9.730;2023-02-12T12:11:37;40.83;;;38.17;;
9254;SDS011;4663;49.120;9.730;2023-02-12T12:14:19;42.40;;;39.77;;
9254;SDS011;4663;49.120;9.730;2023-02-12T12:17:01;39.70;;;37.33;;
9254;SDS011;4663;49.120;9.730;2023-02-12T12:19:55;39.80;;;37.27;;
9254;SDS011;4663;49.120;9.730;2023-02-12T12:22:25;41.60;;;39.03;;
9254;SDS011;4663;49.120;9.730;2023-02-12T12:25:12;42.40;;;39.90;;
9254;SDS011;4663;49.120;9.730;2023-02-12T12:33:05;32.50;;;30.52;;
9254;SDS011;4663;49.120;9.730;2023-02-12T12:35:44;33.17;;;31.23;;
9254;SDS011;4663;49.120;9.730;2023-02-12T12:43:43;27.45;;;25.83;;
9254;SDS011;4663;49.120;9.730;2023-02-12T12:46:14;26.02;;;24.52;;
9254;SDS011;4663;49.120;9.730;2023-02-12T12:49:10;28.90;;;27.25;;
9254;SDS011;4663;49.120;9.730;2023-02-12T12:55:14;33.70;;;31.80;;
9254;SDS011;4663;49.120;9.730;2023-02-12T13:14:30;34.72;;;32.70;;
9254;SDS011;4663;49.120;9.730;2023-02-12T13:24:44;41.67;;;39.33;;
9254;SDS011;4663;49.120;9.730;2023-02-12T13:27:15;43.53;;;41.10;;
9254;SDS011;4663;49.120;9.730;2023-02-12T13:29:58;41.90;;;39.57;;
9254;SDS011;4663;49.120;9.730;2023-02-12T13:32:29;41.57;;;39.23;;
9254;SDS011;4663;49.120;9.730;2023-02-12T13:34:59;42.77;;;40.43;;
9254;SDS011;4663;49.120;9.730;2023-02-12T13:37:34;42.67;;;40.20;;
9254;SDS011;4663;49.120;9.730;2023-02-12T13:40:05;45.43;;;42.97;;
9254;SDS011;4663;49.120;9.730;2023-02-12T13:45:20;43.20;;;40.70;;
9254;SDS011;4663;49.120;9.730;2023-02-12T14:03:32;26.10;;;24.17;;
9254;SDS011;4663;49.120;9.730;2023-02-12T14:06:18;27.33;;;25.53;;
9254;SDS011;4663;49.120;9.730;2023-02-12T14:08:46;22.47;;;21.00;;
9254;SDS011;4663;49.120;9.730;2023-02-12T14:11:15;23.03;;;21.43;;
9254;SDS011;4663;49.120;9.730;2023-02-12T14:13:54;27.13;;;25.37;;
9254;SDS011;4663;49.120;9.730;2023-02-12T14:21:58;22.73;;;21.33;;
9254;SDS011;4663;49.120;9.730;2023-02-12T14:27:06;33.27;;;31.17;;
9254;SDS011;4663;49.120;9.730;2023-02-12T14:33:21;30.17;;;28.27;;
9254;SDS011;4663;49.120;9.730;2023-02-12T14:36:11;30.90;;;28.70;;
9254;SDS011;4663;49.120;9.730;2023-02-12T14:49:39;20.27;;;18.77;;
9254;SDS011;4663;49.120;9.730;2023-02-12T14:59:51;21.53;;;19.83;;
9254;SDS011;4663;49.120;9.730;2023-02-12T15:02:24;20.00;;;18.50;;
9254;SDS011;4663;49.120;9.730;2023-02-12T15:04:58;22.17;;;20.37;;
9254;SDS011;4663;49.120;9.730;2023-02-12T15:07:29;21.40;;;19.70;;
9254;SDS011;4663;49.120;9.730;2023-02-12T15:10:02;29.33;;;26.53;;
9254;SDS011;4663;49.120;9.730;2023-02-12T15:12:36;23.27;;;21.27;;
9254;SDS011;4663;49.120;9.730;2023-02-12T15:15:11;20.43;;;18.90;;
9254;SDS011;4663;49.120;9.730;2023-02-12T15:17:52;20.80;;;19.20;;
9254;SDS011;4663;49.120;9.730;2023-02-12T15:20:23;20.63;;;19.03;;
9254;SDS011;4663;49.120;9.730;2023-02-12T15:22:56;20.27;;;18.77;;
9254;SDS011;4663;49.120;9.730;2023-02-12T15:27:49;18.23;;;16.83;;
9254;SDS011;4663;49.120;9.730;2023-02-12T15:30:19;18.20;;;16.90;;
9254;SDS011;4663;49.120;9.730;2023-02-12T15:32:47;18.70;;;17.20;;
9254;SDS011;4663;49.120;9.730;2023-02-12T15:35:19;16.93;;;15.63;;
9254;SDS011;4663;49.120;9.730;2023-02-12T15:37:46;18.17;;;16.83;;
9254;SDS011;4663;49.120;9.730;2023-02-12T15:40:13;19.27;;;17.77;;
9254;SDS011;4663;49.120;9.730;2023-02-12T15:42:40;18.67;;;17.23;;
9254;SDS011;4663;49.120;9.730;2023-02-12T15:47:41;18.63;;;17.33;;
9254;SDS011;4663;49.120;9.730;2023-02-12T15:50:11;19.90;;;18.40;;
9254;SDS011;4663;49.120;9.730;2023-02-12T15:52:38;17.60;;;16.40;;
9254;SDS011;4663;49.120;9.730;2023-02-12T15:55:11;17.30;;;16.00;;
9254;SDS011;4663;49.120;9.730;2023-02-12T15:57:40;19.17;;;17.67;;
9254;SDS011;4663;49.120;9.730;2023-02-12T16:00:09;17.30;;;16.10;;
9254;SDS011;4663;49.120;9.730;2023-02-12T16:02:47;18.27;;;16.97;;
9254;SDS011;4663;49.120;9.730;2023-02-12T16:05:16;18.90;;;17.70;;
9254;SDS011;4663;49.120;9.730;2023-02-12T16:07:41;18.57;;;17.37;;
9254;SDS011;4663;49.120;9.730;2023-02-12T16:10:12;18.90;;;17.40;;
9254;SDS011;4663;49.120;9.730;2023-02-12T16:12:40;28.27;;;25.37;;
9254;SDS011;4663;49.120;9.730;2023-02-12T16:15:05;30.33;;;26.97;;
9254;SDS011;4663;49.120;9.730;2023-02-12T16:17:32;26.03;;;24.33;;
9254;SDS011;4663;49.120;9.730;2023-02-12T16:20:00;26.77;;;25.13;;
9254;SDS011;4663;49.120;9.730;2023-02-12T16:22:43;29.40;;;27.43;;
9254;SDS011;4663;49.120;9.730;2023-02-12T16:25:14;27.73;;;26.03;;
9254;SDS011;4663;49.120;9.730;2023-02-12T16:30:25;33.40;;;31.37;;
9254;SDS011;4663;49.120;9.730;2023-02-12T16:32:51;33.73;;;31.77;;
9254;SDS011;4663;49.120;9.730;2023-02-12T16:37:43;34.97;;;33.00;;
9254;SDS011;4663;49.120;9.730;2023-02-12T16:42:37;34.13;;;32.10;;
9254;SDS011;4663;49.120;9.730;2023-02-12T16:45:48;36.23;;;34.27;;
9254;SDS011;4663;49.120;9.730;2023-02-12T16:47:59;37.50;;;35.47;;
9254;SDS011;4663;49.120;9.730;2023-02-12T16:50:38;33.00;;;31.00;;
9254;SDS011;4663;49.120;9.730;2023-02-12T16:53:23;32.60;;;30.73;;
9254;SDS011;4663;49.120;9.730;2023-02-12T16:56:10;26.13;;;24.50;;
9254;SDS011;4663;49.120;9.730;2023-02-12T16:58:40;28.03;;;26.30;;
9254;SDS011;4663;49.120;9.730;2023-02-12T17:01:05;27.70;;;25.90;;
9254;SDS011;4663;49.120;9.730;2023-02-12T17:03:31;24.57;;;23.07;;
9254;SDS011;4663;49.120;9.730;2023-02-12T17:05:57;27.53;;;25.70;;
9254;SDS011;4663;49.120;9.730;2023-02-12T17:08:23;22.07;;;20.57;;
9254;SDS011;4663;49.120;9.730;2023-02-12T17:10:48;22.00;;;20.57;;
9254;SDS011;4663;49.120;9.730;2023-02-12T17:13:14;18.80;;;17.40;;
9254;SDS011;4663;49.120;9.730;2023-02-12T17:15:41;17.30;;;16.10;;
9254;SDS011;4663;49.120;9.730;2023-02-12T17:18:11;17.83;;;16.53;;
9254;SDS011;4663;49.120;9.730;2023-02-12T17:20:38;17.10;;;15.83;;
9254;SDS011;4663;49.120;9.730;2023-02-12T17:23:03;16.37;;;15.07;;
9254;SDS011;4663;49.120;9.730;2023-02-12T17:25:29;17.77;;;16.57;;
9254;SDS011;4663;49.120;9.730;2023-02-12T17:27:55;16.60;;;15.40;;
9254;SDS011;4663;49.120;9.730;2023-02-12T17:30:21;16.53;;;15.27;;
9254;SDS011;4663;49.120;9.730;2023-02-12T17:32:48;16.10;;;14.90;;
9254;SDS011;4663;49.120;9.730;2023-02-12T17:35:13;16.57;;;15.47;;
9254;SDS011;4663;49.120;9.730;2023-02-12T17:37:39;17.57;;;16.27;;
9254;SDS011;4663;49.120;9.730;2023-02-12T17:40:05;17.17;;;15.87;;
9254;SDS011;4663;49.120;9.730;2023-02-12T17:42:31;21.03;;;19.30;;
9254;SDS011;4663;49.120;9.730;2023-02-12T17:44:56;19.63;;;18.00;;
9254;SDS011;4663;49.120;9.730;2023-02-12T17:47:22;17.43;;;16.03;;
9254;SDS011;4663;49.120;9.730;2023-02-12T17:49:47;18.73;;;17.33;;
9254;SDS011;4663;49.120;9.730;2023-02-12T17:52:13;18.20;;;16.90;;
9254;SDS011;4663;49.120;9.730;2023-02-12T17:54:38;20.37;;;18.87;;
9254;SDS011;4663;49.120;9.730;2023-02-12T17:57:03;22.83;;;21.30;;
9254;SDS011;4663;49.120;9.730;2023-02-12T17:59:29;26.17;;;24.20;;
9254;SDS011;4663;49.120;9.730;2023-02-12T18:01:54;25.47;;;23.67;;
9254;SDS011;4663;49.120;9.730;2023-02-12T18:04:20;28.13;;;26.23;;
9254;SDS011;4663;49.120;9.730;2023-02-12T18:06:45;26.37;;;24.47;;
9254;SDS011;4663;49.120;9.730;2023-02-12T18:09:10;25.50;;;23.83;;
9254;SDS011;4663;49.120;9.730;2023-02-12T18:11:36;29.70;;;27.63;;
9254;SDS011;4663;49.120;9.730;2023-02-12T18:14:04;28.60;;;26.73;;
9254;SDS011;4663;49.120;9.730;2023-02-12T18:16:30;27.83;;;25.93;;